createdAt,value
2019-02-15T00:02:15.514Z,102917.72
2019-02-15T00:04:48.616Z,102915.38
2019-02-15T00:07:17.510Z,102924.45
2019-02-15T00:09:53.240Z,102926.92
2019-02-15T00:12:26.055Z,102921.48
2019-02-15T00:14:56.727Z,102918.55
2019-02-15T00:17:43.267Z,102918.71
2019-02-15T00:20:18.011Z,102920.22
2019-02-15T00:22:49.582Z,102920.06
2019-02-15T00:25:23.518Z,102917.75
2019-02-15T00:27:53.870Z,102919.81
2019-02-15T00:30:22.748Z,102918.13
2019-02-15T00:32:51.287Z,102916.08
2019-02-15T00:35:20.171Z,102916.08
2019-02-15T00:37:51.983Z,102919.38
2019-02-15T00:40:20.820Z,102914.69
2019-02-15T00:42:49.918Z,102914.97
2019-02-15T00:45:21.832Z,102915.44
2019-02-15T00:47:56.038Z,102907.68
2019-02-15T00:50:48.965Z,102914.08
2019-02-15T00:53:42.415Z,102906.45
2019-02-15T00:56:29.769Z,102903.98
2019-02-15T00:59:15.935Z,102906.08
2019-02-15T01:02:12.361Z,102905.92
2019-02-15T01:05:00.575Z,102903.11
2019-02-15T01:07:48.196Z,102902.19
2019-02-15T01:10:35.633Z,102897.50
2019-02-15T01:13:11.642Z,102897.50
2019-02-15T01:15:40.118Z,102895.33
2019-02-15T01:18:10.394Z,102897.69
2019-02-15T01:20:39.315Z,102898.23
2019-02-15T01:23:07.869Z,102890.73
2019-02-15T01:25:48.015Z,102891.51
2019-02-15T01:28:22.781Z,102891.97
2019-02-15T01:31:10.610Z,102889.86
2019-02-15T01:34:00.077Z,102889.16
2019-02-15T01:36:34.791Z,102888.84
2019-02-15T01:39:15.491Z,102885.91
2019-02-15T01:42:05.405Z,102888.32
2019-02-15T01:44:39.449Z,102878.78
2019-02-15T01:47:15.280Z,102875.78
2019-02-15T01:49:43.969Z,102871.05
2019-02-15T01:52:12.712Z,102873.83
2019-02-15T01:54:41.542Z,102877.04
2019-02-15T01:57:09.949Z,102874.04
2019-02-15T01:59:40.770Z,102867.11
2019-02-15T02:02:09.894Z,102861.04
2019-02-15T02:04:38.592Z,102861.04
2019-02-15T02:07:07.181Z,102862.37
2019-02-15T02:09:36.033Z,102855.89
2019-02-15T02:12:05.108Z,102855.89
2019-02-15T02:14:33.695Z,102853.45
2019-02-15T02:17:02.380Z,102853.52
2019-02-15T02:19:30.930Z,102854.98
2019-02-15T02:21:59.369Z,102848.06
2019-02-15T02:24:28.172Z,102845.50
2019-02-15T02:26:56.695Z,102846.73
2019-02-15T02:29:29.607Z,102843.59
2019-02-15T02:31:58.511Z,102843.59
2019-02-15T02:34:27.131Z,102843.34
2019-02-15T02:36:56.580Z,102842.67
2019-02-15T02:39:25.658Z,102844.02
2019-02-15T02:41:54.230Z,102843.88
2019-02-15T02:44:22.641Z,102835.03
2019-02-15T02:46:57.171Z,102828.98
2019-02-15T02:49:25.650Z,102834.20
2019-02-15T02:51:54.176Z,102831.55
2019-02-15T02:54:22.641Z,102829.30
2019-02-15T02:56:52.633Z,102833.89
2019-02-15T02:59:21.472Z,102829.72
2019-02-15T03:01:49.981Z,102827.19
2019-02-15T03:04:18.446Z,102827.34
2019-02-15T03:06:47.222Z,102824.09
2019-02-15T03:09:15.791Z,102833.46
2019-02-15T03:11:44.382Z,102833.63
2019-02-15T03:14:13.247Z,102827.78
2019-02-15T03:16:41.697Z,102821.29
2019-02-15T03:19:10.610Z,102824.59
2019-02-15T03:21:39.639Z,102814.22
2019-02-15T03:24:08.112Z,102815.83
2019-02-15T03:26:36.584Z,102813.08
2019-02-15T03:29:05.514Z,102813.08
2019-02-15T03:31:34.112Z,102812.39
2019-02-15T03:34:04.167Z,102807.43
2019-02-15T03:36:50.383Z,102806.16
2019-02-15T03:39:29.566Z,102813.13
2019-02-15T03:41:58.555Z,102803.37
2019-02-15T03:44:27.781Z,102810.06
2019-02-15T03:46:56.625Z,102801.39
2019-02-15T03:49:26.017Z,102797.02
2019-02-15T03:51:55.176Z,102798.48
2019-02-15T03:54:24.692Z,102802.98
2019-02-15T03:56:54.220Z,102806.25
2019-02-15T03:59:24.164Z,102803.14
2019-02-15T04:01:52.764Z,102801.16
2019-02-15T04:04:22.365Z,102797.95
2019-02-15T04:06:50.934Z,102790.18
2019-02-15T04:09:19.717Z,102792.72
2019-02-15T04:11:51.640Z,102798.02
2019-02-15T04:14:20.618Z,102792.14
2019-02-15T04:16:50.866Z,102793.32
2019-02-15T04:19:19.817Z,102791.02
2019-02-15T04:21:48.852Z,102787.95
2019-02-15T04:24:18.022Z,102789.60
2019-02-15T04:26:47.998Z,102785.42
2019-02-15T04:29:16.996Z,102785.42
2019-02-15T04:31:45.554Z,102790.58
2019-02-15T04:34:14.681Z,102794.50
2019-02-15T04:36:44.252Z,102786.25
2019-02-15T04:39:13.299Z,102781.56
2019-02-15T04:41:42.335Z,102789.97
2019-02-15T04:44:12.575Z,102789.11
2019-02-15T04:46:41.629Z,102787.33
2019-02-15T04:49:12.785Z,102790.78
2019-02-15T04:51:42.612Z,102787.21
2019-02-15T04:54:12.079Z,102787.73
2019-02-15T04:56:40.646Z,102787.67
2019-02-15T04:59:10.273Z,102790.73
2019-02-15T05:01:39.321Z,102792.11
2019-02-15T05:04:08.276Z,102792.31
2019-02-15T05:06:37.241Z,102792.31
2019-02-15T05:09:11.034Z,102780.84
2019-02-15T05:11:39.585Z,102781.77
2019-02-15T05:14:09.537Z,102782.63
2019-02-15T05:16:38.165Z,102780.18
2019-02-15T05:19:08.087Z,102783.70
2019-02-15T05:21:37.367Z,102781.97
2019-02-15T05:24:06.917Z,102785.94
2019-02-15T05:26:35.789Z,102787.52
2019-02-15T05:29:04.368Z,102788.04
2019-02-15T05:31:32.972Z,102782.37
2019-02-15T05:34:01.440Z,102793.16
2019-02-15T05:36:30.720Z,102786.54
2019-02-15T05:39:00.681Z,102783.33
2019-02-15T05:41:29.880Z,102780.08
2019-02-15T05:44:01.675Z,102780.75
2019-02-15T05:46:30.467Z,102783.06
2019-02-15T05:48:59.674Z,102783.59
2019-02-15T05:51:35.165Z,102783.73
2019-02-15T05:54:04.144Z,102785.27
2019-02-15T05:56:33.194Z,102783.69
2019-02-15T05:59:01.938Z,102785.59
2019-02-15T06:01:31.563Z,102790.52
2019-02-15T06:04:01.791Z,102785.69
2019-02-15T06:06:30.602Z,102789.00
2019-02-15T06:09:01.443Z,102790.52
2019-02-15T06:11:33.157Z,102785.22
2019-02-15T06:14:10.342Z,102785.94
2019-02-15T06:17:01.839Z,102790.15
2019-02-15T06:19:30.766Z,102789.22
2019-02-15T06:21:59.824Z,102782.80
2019-02-15T06:24:28.510Z,102786.48
2019-02-15T06:27:04.556Z,102782.85
2019-02-15T06:29:33.275Z,102785.45
2019-02-15T06:32:18.359Z,102783.00
2019-02-15T06:34:59.514Z,102783.92
2019-02-15T06:37:31.348Z,102786.83
2019-02-15T06:40:11.724Z,102786.97
2019-02-15T06:42:40.256Z,102788.97
2019-02-15T06:45:24.296Z,102785.90
2019-02-15T06:47:52.671Z,102785.90
2019-02-15T06:50:26.262Z,102796.76
2019-02-15T06:52:55.496Z,102797.95
2019-02-15T06:55:24.213Z,102799.67
2019-02-15T06:58:00.617Z,102795.39
2019-02-15T07:00:48.973Z,102802.94
2019-02-15T07:03:40.078Z,102810.09
2019-02-15T07:06:12.238Z,102802.59
2019-02-15T07:08:43.227Z,102809.52
2019-02-15T07:11:13.556Z,102815.28
2019-02-15T07:13:50.824Z,102810.95
2019-02-15T07:16:22.184Z,102812.69
2019-02-15T07:18:52.258Z,102809.63
2019-02-15T07:21:30.258Z,102815.02
2019-02-15T07:23:59.211Z,102812.28
2019-02-15T07:26:31.282Z,102822.05
2019-02-15T07:29:02.055Z,102822.05
2019-02-15T07:31:52.732Z,102820.86
2019-02-15T07:34:21.317Z,102815.81
2019-02-15T07:36:52.205Z,102825.22
2019-02-15T07:39:21.942Z,102816.26
2019-02-15T07:41:50.818Z,102822.87
2019-02-15T07:44:20.817Z,102822.08
2019-02-15T07:46:49.586Z,102816.83
2019-02-15T07:49:26.593Z,102821.16
2019-02-15T07:51:50.769Z,102817.00
2019-02-15T07:54:19.973Z,102820.65
2019-02-15T07:57:11.003Z,102811.73
2019-02-15T07:59:52.695Z,102814.78
2019-02-15T08:02:27.621Z,102822.87
2019-02-15T08:04:59.437Z,102814.06
2019-02-15T08:07:39.882Z,102821.44
2019-02-15T08:10:09.545Z,102824.97
2019-02-15T08:12:41.234Z,102825.69
2019-02-15T08:15:35.681Z,102817.18
2019-02-15T08:17:59.854Z,102817.28
2019-02-15T08:20:31.614Z,102814.98
2019-02-15T08:23:03.183Z,102811.34
2019-02-15T08:25:32.610Z,102807.17
2019-02-15T08:28:01.457Z,102806.45
2019-02-15T08:30:44.771Z,102811.89
2019-02-15T08:33:16.050Z,102796.33
2019-02-15T08:35:52.169Z,102796.33
2019-02-15T08:38:22.460Z,102806.17
2019-02-15T08:40:55.767Z,102804.48
2019-02-15T08:43:25.668Z,102800.17
2019-02-15T08:46:00.705Z,102803.53
2019-02-15T08:48:25.979Z,102798.08
2019-02-15T08:50:56.967Z,102797.03
2019-02-15T08:53:27.214Z,102798.49
2019-02-15T08:56:11.657Z,102795.73
2019-02-15T08:58:40.802Z,102793.59
2019-02-15T09:01:17.562Z,102796.16
2019-02-15T09:03:56.922Z,102797.98
2019-02-15T09:06:26.691Z,102804.11
2019-02-15T09:08:59.105Z,102795.55
2019-02-15T09:11:29.192Z,102798.88
2019-02-15T09:14:02.545Z,102794.23
2019-02-15T09:16:29.086Z,102791.20
2019-02-15T09:19:30.095Z,102791.20
2019-02-15T09:22:10.220Z,102789.42
2019-02-15T09:24:54.346Z,102784.47
2019-02-15T09:27:42.532Z,102777.80
2019-02-15T09:30:18.643Z,102777.80
2019-02-15T09:32:55.506Z,102785.62
2019-02-15T09:35:24.712Z,102542.08
2019-02-15T09:37:56.381Z,102778.88
2019-02-15T09:40:27.054Z,102775.59
2019-02-15T09:42:56.081Z,102779.84
2019-02-15T09:45:26.312Z,102778.45
2019-02-15T09:47:55.370Z,102779.59
2019-02-15T09:50:33.835Z,102774.11
2019-02-15T09:53:03.652Z,102775.27
2019-02-15T09:55:36.585Z,102773.11
2019-02-15T09:58:05.899Z,102762.16
2019-02-15T10:00:40.571Z,102771.33
2019-02-15T10:03:11.143Z,102759.80
2019-02-15T10:05:42.955Z,102766.20
2019-02-15T10:08:15.359Z,102757.09
2019-02-15T10:10:44.923Z,102761.94
2019-02-15T10:13:14.058Z,102766.41
2019-02-15T10:15:43.140Z,102767.00
2019-02-15T10:19:30.704Z,102758.32
2019-02-15T10:24:46.654Z,102762.19
2019-02-15T10:43:56.204Z,102757.26
2019-02-15T11:10:58.855Z,102732.22
2019-02-15T11:26:44.731Z,102709.81
2019-02-15T11:40:16.220Z,102711.04
2019-02-15T11:42:45.843Z,102700.00
2019-02-15T11:45:23.190Z,102696.92
2019-02-15T11:47:52.132Z,102698.44
2019-02-15T11:50:20.917Z,102693.39
2019-02-15T11:52:49.916Z,102695.86
2019-02-15T11:55:21.543Z,102685.31
2019-02-15T11:57:56.156Z,102685.00
2019-02-15T12:01:02.257Z,102645.28
2019-02-15T12:04:12.576Z,102671.14
2019-02-15T12:06:40.759Z,102675.97
2019-02-15T12:12:49.180Z,102665.45
2019-02-15T12:18:47.434Z,102648.88
2019-02-15T12:21:03.204Z,102646.47
2019-02-15T12:23:34.255Z,102635.97
2019-02-15T12:26:03.839Z,102640.52
2019-02-15T12:28:34.542Z,102633.09
2019-02-15T12:40:08.666Z,102618.84
2019-02-15T12:43:14.990Z,102617.88
2019-02-15T12:46:49.373Z,102601.78
2019-02-15T12:52:06.405Z,102603.92
2019-02-15T13:04:08.069Z,102587.09
2019-02-15T13:09:46.145Z,102575.19
2019-02-15T14:14:06.449Z,102480.22
2019-02-15T14:17:02.690Z,102471.52
2019-02-15T14:38:15.249Z,102464.00
2019-02-15T14:40:23.896Z,102460.54
2019-02-15T14:43:04.396Z,102455.75
2019-02-15T14:48:36.793Z,102452.02
2019-02-15T15:03:03.131Z,102433.30
2019-02-15T15:17:08.810Z,102406.95
2019-02-15T15:19:44.311Z,102399.29
2019-02-15T15:22:34.852Z,102395.11
2019-02-15T15:28:55.462Z,102398.67
2019-02-15T15:31:42.365Z,102394.69
2019-02-15T15:35:15.108Z,102394.51
2019-02-15T15:41:10.786Z,102393.80
2019-02-15T15:43:40.135Z,102390.53
2019-02-15T15:46:39.795Z,102380.01
2019-02-15T15:49:30.706Z,102378.27
2019-02-15T16:01:42.695Z,102379.61
2019-02-15T16:06:40.252Z,102364.88
2019-02-15T16:09:55.342Z,102364.88
2019-02-15T16:21:17.177Z,102355.03
2019-02-15T16:24:12.919Z,102354.49
2019-02-15T16:30:07.718Z,102353.05
2019-02-15T16:35:38.506Z,102348.37
2019-02-15T16:41:16.944Z,102347.44
2019-02-15T16:43:45.324Z,102348.27
2019-02-15T16:47:00.575Z,102349.83
2019-02-15T16:49:31.756Z,102345.27
2019-02-15T16:58:13.340Z,102347.36
2019-02-15T17:18:51.505Z,102349.90
2019-02-15T17:27:47.238Z,102346.47
2019-02-15T17:37:08.578Z,102341.48
2019-02-15T17:42:32.017Z,102336.17
2019-02-15T17:45:23.301Z,102342.73
2019-02-15T17:48:04.986Z,102338.62
2019-02-15T17:54:03.386Z,102343.47
2019-02-15T17:56:24.122Z,102341.39
2019-02-15T18:05:25.371Z,102331.48
2019-02-15T18:08:12.750Z,102336.22
2019-02-15T18:13:51.758Z,102334.73
2019-02-15T18:19:37.748Z,102331.37
2019-02-15T18:22:25.188Z,102336.34
2019-02-15T18:25:04.122Z,102342.48
2019-02-15T18:30:31.724Z,102342.88
2019-02-15T18:36:10.099Z,102336.22
2019-02-15T18:45:39.793Z,102326.99
2019-02-15T18:48:22.312Z,102327.55
2019-02-15T18:51:40.302Z,102327.08
2019-02-15T18:54:07.344Z,102325.52
2019-02-15T19:00:06.537Z,102323.23
2019-02-15T19:08:49.489Z,102321.57
2019-02-15T19:14:32.245Z,102318.52
2019-02-15T19:20:25.487Z,102319.17
2019-02-15T19:32:42.519Z,102315.89
2019-02-15T19:35:24.673Z,102315.14
2019-02-15T19:44:11.576Z,102317.72
2019-02-15T19:50:26.435Z,102321.63
2019-02-15T19:56:04.465Z,102316.98
2019-02-15T20:09:08.610Z,102304.58
2019-02-15T20:17:46.122Z,102298.23
2019-02-15T20:24:11.477Z,102293.94
2019-02-15T20:26:25.462Z,102299.42
2019-02-15T20:44:44.323Z,102296.72
2019-02-15T20:53:22.207Z,102294.15
2019-02-15T20:55:50.872Z,102289.66
2019-02-15T21:05:00.048Z,102294.15
2019-02-15T21:07:32.482Z,102284.71
2019-02-15T21:13:20.241Z,102284.55
2019-02-15T21:18:55.547Z,102282.95
2019-02-15T21:24:27.629Z,102290.97
2019-02-15T21:27:27.066Z,102286.72
2019-02-15T21:38:51.734Z,102280.00
2019-02-15T21:44:38.550Z,102292.31
2019-02-15T21:47:26.052Z,102294.47
2019-02-15T21:50:17.445Z,102286.31
2019-02-15T21:56:18.576Z,102285.34
2019-02-15T21:58:51.939Z,102282.83
2019-02-15T22:05:29.517Z,102276.77
2019-02-15T22:08:16.661Z,102277.48
2019-02-15T22:11:07.392Z,102277.02
2019-02-15T22:16:49.830Z,102265.64
2019-02-15T22:19:19.076Z,102263.48
2019-02-15T22:21:57.245Z,102265.20
2019-02-15T22:24:58.972Z,102270.22
2019-02-15T22:27:42.674Z,102263.00
2019-02-15T22:33:49.442Z,102263.96
2019-02-15T22:36:28.544Z,102262.48
2019-02-15T22:42:35.945Z,102262.83
2019-02-15T22:51:18.235Z,102259.44
2019-02-15T22:53:27.664Z,102254.63
2019-02-15T22:56:46.071Z,102257.47
2019-02-15T22:59:25.099Z,102262.16
2019-02-15T23:08:47.475Z,102256.14
2019-02-15T23:17:27.566Z,102247.45
2019-02-15T23:20:44.635Z,102243.22
2019-02-15T23:36:41.912Z,102235.20
2019-02-15T23:45:36.543Z,102238.78
2019-02-15T23:51:39.309Z,102222.23
2019-02-15T23:54:20.727Z,102231.05
2019-02-15T23:57:15.883Z,102227.64
